Nearby METAR Data
EGNX - East Midlands, United Kingdom
Distance from station: SSE 24mi, 39km
Updated: 17/11/2018 17:20
Clear
Clear
 Wind from ENE
Wind: ENE 9 mph , 15 km/h
Temperature: 7°C
Wind Chill: 4°C
Dew Point: 6°C
Humidity: 93%
Barometer: 1028 hPa
Summary: Clear
Visibility: greater than 7 miles , 10 km
2018/11/17 17:20 EGNX 171720Z 06008KT CAVOK 07/06 Q1028
EGCN - Doncaster Sheffi, United Kingdom
Distance from station: NE 31mi, 49km
Updated: 17/11/2018 17:20
Clear
Clear
 Wind from ENE
Wind: ENE 6 mph , 9 km/h
Temperature: 8°C
Wind Chill: 6°C
Dew Point: 6°C
Humidity: 87%
Barometer: 1030 hPa
Summary: Clear
Visibility: greater than 7 miles , 10 km
2018/11/17 17:20 EGCN 171720Z 07005KT CAVOK 08/06 Q1030
 
EGXS - Swinderby Raf, United Kingdom
Distance from station: E 33mi, 54km
Updated: 17/11/2018 16:50
Clear
Clear
 Wind from E
Wind: E 16 mph , 26 km/h
Temperature: 9°C
Wind Chill: 6°C
Dew Point: 7°C
Humidity: 87%
Barometer: 1030 hPa
Clouds: Clear
Visibility: 6 miles , 10 km
2018/11/17 16:50 EGXS 171650Z AUTO 09014KT 9999 // NCD 09/07 Q1030
EGCC - Manchester Intl, United Kingdom
Distance from station: WNW 35mi, 56km
Updated: 17/11/2018 17:20
Clear
Clear
 Wind from varies
Wind: varies 7 mph , 11 km/h
Temperature: 9°C
Wind Chill: 7°C
Dew Point: 4°C
Humidity: 71%
Barometer: 1028 hPa
Clouds: Clear
Visibility: 6 miles , 10 km
2018/11/17 17:20 EGCC 171720Z AUTO VRB06KT 9999 NCD 09/04 Q1028 NOSIG
 
EGXP - Scampton Raf, United Kingdom
Distance from station: ENE 40mi, 65km
Updated: 17/11/2018 16:50
Clear
Clear
 Wind from E
Wind: E 9 mph , 15 km/h
Temperature: 7°C
Wind Chill: 4°C
Dew Point: 6°C
Humidity: 93%
Barometer: 1029 hPa
Clouds: Clear
Visibility: 6 miles , 10 km
2018/11/17 16:50 EGXP 171650Z AUTO 08008KT 9999 // NCD 07/06 Q1029
EGXW - Waddington Raf, United Kingdom
Distance from station: E 40mi, 65km
Updated: 17/11/2018 16:50
Clear
Clear
 Wind from E
Wind: E 13 mph , 20 km/h
Temperature: 7°C
Wind Chill: 4°C
Dew Point: 6°C
Humidity: 93%
Barometer: 1029 hPa
Clouds: Clear
Visibility: 6 miles , 10 km
2018/11/17 16:50 EGXW 171650Z AUTO 08011KT 9999 NCD 07/06 Q1029